createdAt,value
2023-02-16T00:00:30.988Z,95853.28
2023-02-16T00:02:58.257Z,95849.97
2023-02-16T00:05:29.164Z,95856.06
2023-02-16T00:07:57.640Z,95837.19
2023-02-16T00:10:28.169Z,95843.75
2023-02-16T00:13:13.605Z,95836.84
2023-02-16T00:15:41.246Z,95852.13
2023-02-16T00:18:21.004Z,95841.78
2023-02-16T00:20:49.614Z,95832.19
2023-02-16T00:23:16.896Z,95833.63
2023-02-16T00:25:43.801Z,95836.81
2023-02-16T00:28:18.583Z,95829.28
2023-02-16T00:30:46.295Z,95833.75
2023-02-16T00:33:17.593Z,95844.75
2023-02-16T00:35:45.249Z,95838.06
2023-02-16T00:38:13.312Z,95830.22
2023-02-16T00:40:42.123Z,95834.88
2023-02-16T00:43:28.441Z,95834.97
2023-02-16T00:45:56.966Z,95837.97
2023-02-16T00:48:25.143Z,95836.56
2023-02-16T00:50:53.679Z,95833.38
2023-02-16T00:53:20.856Z,95839.75
2023-02-16T00:55:48.057Z,95833.97
2023-02-16T00:58:24.897Z,95836.97
2023-02-16T01:00:56.336Z,95832.84
2023-02-16T01:03:27.213Z,95835.56
2023-02-16T01:06:15.040Z,95833.78
2023-02-16T01:09:01.279Z,95831.50
2023-02-16T01:11:29.818Z,95829.34
2023-02-16T01:13:58.110Z,95828.53
2023-02-16T01:16:33.250Z,95833.78
2023-02-16T01:19:00.247Z,95818.63
2023-02-16T01:21:27.431Z,95823.78
2023-02-16T01:23:54.397Z,95818.00
2023-02-16T01:26:21.952Z,95817.28
2023-02-16T01:28:49.197Z,95830.19
2023-02-16T01:31:17.817Z,95817.47
2023-02-16T01:33:45.009Z,95821.09
2023-02-16T01:36:27.621Z,95813.69
2023-02-16T01:38:54.562Z,95812.84
2023-02-16T01:41:51.621Z,95811.19
2023-02-16T01:44:24.709Z,95810.56
2023-02-16T01:47:33.946Z,95799.00
2023-02-16T01:50:16.207Z,95801.81
2023-02-16T01:52:50.640Z,95810.47
2023-02-16T01:55:26.195Z,95806.22
2023-02-16T01:58:48.738Z,95803.66
2023-02-16T02:01:40.100Z,95796.84
2023-02-16T02:05:19.116Z,95795.63
2023-02-16T02:07:53.334Z,95792.94
2023-02-16T02:10:32.020Z,95784.78
2023-02-16T02:13:20.506Z,95776.97
2023-02-16T02:15:48.154Z,95782.75
2023-02-16T02:18:15.466Z,95789.34
2023-02-16T02:21:16.435Z,95805.31
2023-02-16T02:24:03.961Z,95787.56
2023-02-16T02:27:32.902Z,95801.69
2023-02-16T02:30:37.739Z,95796.53
2023-02-16T02:33:42.076Z,95791.38
2023-02-16T02:36:46.032Z,95782.22
2023-02-16T02:39:43.617Z,95779.66
2023-02-16T02:42:19.987Z,95780.47
2023-02-16T02:45:14.299Z,95781.06
2023-02-16T02:47:47.566Z,95780.25
2023-02-16T02:51:06.442Z,95785.31
2023-02-16T02:53:40.213Z,95771.06
2023-02-16T02:56:28.901Z,95766.88
2023-02-16T02:59:23.405Z,95777.25
2023-02-16T03:01:56.685Z,95774.91
2023-02-16T03:04:28.844Z,95777.47
2023-02-16T03:06:58.700Z,95776.97
2023-02-16T03:09:26.147Z,95774.47
2023-02-16T03:12:13.378Z,95772.19
2023-02-16T03:14:54.750Z,95776.84
2023-02-16T03:17:48.470Z,95774.50
2023-02-16T03:20:35.389Z,95768.00
2023-02-16T03:23:24.664Z,95759.84
2023-02-16T03:26:11.721Z,95765.09
2023-02-16T03:29:00.759Z,95762.81
2023-02-16T03:31:38.506Z,95768.28
2023-02-16T03:34:07.078Z,95765.16
2023-02-16T03:36:39.974Z,95769.69
2023-02-16T03:39:08.092Z,95762.28
2023-02-16T03:41:44.115Z,95765.16
2023-02-16T03:44:11.044Z,95766.19
2023-02-16T03:46:38.273Z,95757.84
2023-02-16T03:49:05.161Z,95767.31
2023-02-16T03:51:32.151Z,95768.25
2023-02-16T03:53:59.233Z,95779.56
2023-02-16T03:56:26.182Z,95775.44
2023-02-16T03:58:53.460Z,95780.56
2023-02-16T04:01:20.460Z,95782.22
2023-02-16T04:03:47.724Z,95779.94
2023-02-16T04:06:14.801Z,95779.94
2023-02-16T04:08:41.776Z,95771.59
2023-02-16T04:11:27.736Z,95768.09
2023-02-16T04:13:54.692Z,95765.75
2023-02-16T04:16:21.732Z,95770.97
2023-02-16T04:18:48.790Z,95774.50
2023-02-16T04:21:15.762Z,95772.19
2023-02-16T04:23:43.098Z,95760.34
2023-02-16T04:26:10.009Z,95759.63
2023-02-16T04:28:36.898Z,95755.38
2023-02-16T04:31:04.321Z,95762.31
2023-02-16T04:33:31.414Z,95764.03
2023-02-16T04:35:58.453Z,95760.84
2023-02-16T04:38:26.205Z,95755.78
2023-02-16T04:40:53.198Z,95754.88
2023-02-16T04:43:20.086Z,95748.88
2023-02-16T04:45:47.195Z,95750.63
2023-02-16T04:48:14.077Z,95748.81
2023-02-16T04:50:41.084Z,95750.63
2023-02-16T04:53:08.020Z,95754.88
2023-02-16T04:55:35.198Z,95753.94
2023-02-16T04:58:02.166Z,95754.88
2023-02-16T05:00:29.270Z,95750.47
2023-02-16T05:02:57.178Z,95745.50
2023-02-16T05:05:24.220Z,95744.69
2023-02-16T05:07:51.260Z,95751.44
2023-02-16T05:10:18.349Z,95748.06
2023-02-16T05:13:03.866Z,95765.97
2023-02-16T05:15:30.851Z,95761.03
2023-02-16T05:17:57.976Z,95758.66
2023-02-16T05:20:44.989Z,95750.94
2023-02-16T05:23:11.990Z,95762.88
2023-02-16T05:25:38.966Z,95759.66
2023-02-16T05:28:06.066Z,95767.28
2023-02-16T05:30:33.263Z,95764.19
2023-02-16T05:33:00.237Z,95765.75
2023-02-16T05:35:28.486Z,95765.22
2023-02-16T05:37:55.560Z,95763.38
2023-02-16T05:40:22.796Z,95759.03
2023-02-16T05:42:54.344Z,95771.81
2023-02-16T05:45:21.651Z,95769.03
2023-02-16T05:47:48.692Z,95763.16
2023-02-16T05:50:15.878Z,95769.22
2023-02-16T05:52:42.962Z,95766.59
2023-02-16T05:55:10.599Z,95770.19
2023-02-16T05:57:37.737Z,95777.78
2023-02-16T06:00:05.988Z,95766.88
2023-02-16T06:02:33.243Z,95777.91
2023-02-16T06:05:00.419Z,95779.00
2023-02-16T06:07:27.347Z,95781.47
2023-02-16T06:09:54.293Z,95785.69
2023-02-16T06:12:21.409Z,95785.63
2023-02-16T06:14:48.430Z,95799.94
2023-02-16T06:17:15.433Z,95794.78
2023-02-16T06:19:42.522Z,95793.03
2023-02-16T06:22:09.391Z,95801.38
2023-02-16T06:24:37.185Z,95797.69
2023-02-16T06:27:04.666Z,95800.19
2023-02-16T06:29:32.007Z,95794.75
2023-02-16T06:31:59.319Z,95804.53
2023-02-16T06:34:26.378Z,95801.69
2023-02-16T06:36:53.409Z,95799.72
2023-02-16T06:39:20.442Z,95802.66
2023-02-16T06:41:47.409Z,95806.66
2023-02-16T06:44:16.056Z,95802.03
2023-02-16T06:46:45.481Z,95807.63
2023-02-16T06:49:19.910Z,95808.03
2023-02-16T06:51:48.638Z,95810.03
2023-02-16T06:54:16.658Z,95807.03
2023-02-16T06:56:43.807Z,95807.38
2023-02-16T06:59:12.389Z,95804.38
2023-02-16T07:01:39.435Z,95820.19
2023-02-16T07:04:06.313Z,95814.50
2023-02-16T07:06:33.267Z,95818.81
2023-02-16T07:09:00.492Z,95819.88
2023-02-16T07:11:27.676Z,95809.13
2023-02-16T07:13:54.970Z,95808.38
2023-02-16T07:16:22.112Z,95821.28
2023-02-16T07:18:49.333Z,95813.84
2023-02-16T07:21:16.636Z,95811.56
2023-02-16T07:23:43.799Z,95816.66
2023-02-16T07:26:11.016Z,95821.09
2023-02-16T07:28:38.130Z,95811.84
2023-02-16T07:31:11.025Z,95802.53
2023-02-16T07:33:38.843Z,95811.38
2023-02-16T07:36:08.991Z,95813.88
2023-02-16T07:38:36.100Z,95816.53
2023-02-16T07:41:05.797Z,95816.69
2023-02-16T07:43:34.729Z,95811.66
2023-02-16T07:46:02.300Z,95810.03
2023-02-16T07:48:29.331Z,95804.06
2023-02-16T07:50:56.219Z,95808.34
2023-02-16T07:53:23.186Z,95814.34
2023-02-16T07:55:50.085Z,95812.63
2023-02-16T07:58:27.335Z,95810.03
2023-02-16T08:01:15.904Z,95812.38
2023-02-16T08:03:43.319Z,95808.25
2023-02-16T08:06:10.555Z,95803.19
2023-02-16T08:08:39.045Z,95803.53
2023-02-16T08:11:18.858Z,95804.09
2023-02-16T08:13:46.897Z,95808.88
2023-02-16T08:16:20.916Z,95802.47
2023-02-16T08:18:48.505Z,95803.44
2023-02-16T08:21:19.713Z,95805.66
2023-02-16T08:23:57.626Z,95801.53
2023-02-16T08:26:28.849Z,95807.78
2023-02-16T08:28:58.320Z,95802.84
2023-02-16T08:31:31.962Z,95804.69
2023-02-16T08:34:00.532Z,95801.38
2023-02-16T08:36:34.550Z,95806.63
2023-02-16T08:39:05.918Z,95801.78
2023-02-16T08:41:35.953Z,95798.66
2023-02-16T08:44:05.249Z,95792.78
2023-02-16T08:46:34.128Z,95796.22
2023-02-16T08:49:02.018Z,95806.88
2023-02-16T08:51:34.772Z,95800.44
2023-02-16T08:54:05.972Z,95795.03
2023-02-16T08:56:34.364Z,95794.16
2023-02-16T08:59:01.856Z,95798.72
2023-02-16T09:01:29.024Z,95798.03
2023-02-16T09:03:56.081Z,95800.47
2023-02-16T09:06:23.422Z,95791.38
2023-02-16T09:08:56.781Z,95781.44
2023-02-16T09:11:24.682Z,95784.41
2023-02-16T09:13:51.763Z,95787.34
2023-02-16T09:16:22.456Z,95781.22
2023-02-16T09:18:50.835Z,95781.03
2023-02-16T09:21:25.498Z,95784.41
2023-02-16T09:23:55.747Z,95795.88
2023-02-16T09:26:24.787Z,95777.63
2023-02-16T09:28:53.468Z,95788.47
2023-02-16T09:31:33.696Z,95791.13
2023-02-16T09:34:09.388Z,95788.19
2023-02-16T09:36:38.132Z,95788.38
2023-02-16T09:39:05.691Z,95787.91
2023-02-16T09:41:57.712Z,95790.50
2023-02-16T09:44:33.633Z,95789.66
2023-02-16T09:47:06.467Z,95782.94
2023-02-16T09:49:43.927Z,95786.34
2023-02-16T09:52:40.174Z,95786.97
2023-02-16T09:55:20.709Z,95787.75
2023-02-16T09:58:19.543Z,95786.69
2023-02-16T10:00:56.405Z,95779.94
2023-02-16T10:03:28.785Z,95786.06
2023-02-16T10:06:14.185Z,95784.63
2023-02-16T10:08:50.177Z,95771.75
2023-02-16T10:11:46.510Z,95781.78
2023-02-16T10:14:31.617Z,95780.81
2023-02-16T10:17:16.986Z,95776.81
2023-02-16T10:20:06.265Z,95771.88
2023-02-16T10:23:16.207Z,95773.16
2023-02-16T10:26:44.288Z,95771.72
2023-02-16T10:29:16.914Z,95777.50
2023-02-16T10:31:56.482Z,95767.69
2023-02-16T10:35:02.483Z,95754.09
2023-02-16T10:37:56.774Z,95759.78
2023-02-16T10:40:38.422Z,95755.66
2023-02-16T10:43:45.152Z,95750.09
2023-02-16T10:46:22.759Z,95751.19
2023-02-16T10:48:54.511Z,95742.97
2023-02-16T10:51:28.280Z,95737.41
2023-02-16T10:54:17.544Z,95734.06
2023-02-16T10:57:26.522Z,95736.41
2023-02-16T10:59:55.011Z,95724.91
2023-02-16T11:02:38.927Z,95720.94
2023-02-16T11:05:36.429Z,95720.81
2023-02-16T11:08:04.861Z,95719.22
2023-02-16T11:10:39.832Z,95725.16
2023-02-16T11:13:16.891Z,95723.56
2023-02-16T11:15:43.972Z,95727.44
2023-02-16T11:18:43.774Z,95725.88
2023-02-16T11:21:12.246Z,95719.78
2023-02-16T11:23:42.124Z,95708.41
2023-02-16T11:26:11.823Z,95706.97
2023-02-16T11:28:51.093Z,95704.34
2023-02-16T11:31:39.885Z,95713.31
2023-02-16T11:34:33.320Z,95714.16
2023-02-16T11:37:18.129Z,95708.69
2023-02-16T11:39:56.684Z,95692.06
2023-02-16T11:42:40.702Z,95694.16
2023-02-16T11:45:09.678Z,95691.19
2023-02-16T11:47:40.422Z,95688.81
2023-02-16T11:50:09.668Z,95689.09
2023-02-16T11:52:37.012Z,95695.41
2023-02-16T11:55:04.818Z,95686.72
2023-02-16T11:57:36.979Z,95681.84
2023-02-16T12:00:18.232Z,95681.06
2023-02-16T12:03:12.181Z,95678.75
2023-02-16T12:06:15.041Z,95680.34
2023-02-16T12:09:00.002Z,95677.66
2023-02-16T12:12:09.456Z,95668.09
2023-02-16T12:15:04.357Z,95664.81
2023-02-16T12:17:49.982Z,95656.44
2023-02-16T12:20:39.841Z,95654.00
2023-02-16T12:23:52.442Z,95654.34
2023-02-16T12:26:52.229Z,95653.72
2023-02-16T12:29:45.055Z,95650.84
2023-02-16T12:32:24.434Z,95656.41
2023-02-16T12:35:09.560Z,95656.84
2023-02-16T12:38:20.608Z,95648.47
2023-02-16T12:41:05.964Z,95645.31
2023-02-16T12:43:42.060Z,95633.78
2023-02-16T12:46:44.998Z,95637.84
2023-02-16T12:49:36.347Z,95633.19
2023-02-16T12:52:18.321Z,95633.19
2023-02-16T12:55:17.256Z,95634.78
2023-02-16T12:57:55.365Z,95624.13
2023-02-16T13:00:28.850Z,95629.66
2023-02-16T13:03:35.285Z,95625.19
2023-02-16T13:06:37.620Z,95615.97
2023-02-16T13:09:35.879Z,95608.81
2023-02-16T13:12:36.495Z,95596.38
2023-02-16T13:15:19.532Z,95589.69
2023-02-16T13:18:02.226Z,95593.25
2023-02-16T13:20:30.271Z,95599.34
2023-02-16T13:23:43.777Z,95600.22
2023-02-16T13:26:41.023Z,95588.59
2023-02-16T13:29:26.911Z,95593.84
2023-02-16T13:32:20.190Z,95585.78
2023-02-16T13:35:00.196Z,95585.25
2023-02-16T13:37:48.572Z,95579.38
2023-02-16T13:41:03.093Z,95583.88
2023-02-16T13:43:36.535Z,95571.00
2023-02-16T13:46:10.540Z,95576.41
2023-02-16T13:48:48.834Z,95581.59
2023-02-16T13:51:20.672Z,95576.59
2023-02-16T13:54:00.243Z,95580.59
2023-02-16T13:56:30.734Z,95578.38
2023-02-16T13:59:19.706Z,95578.34
2023-02-16T14:01:48.991Z,95580.41
2023-02-16T14:04:25.395Z,95584.53
2023-02-16T14:07:18.325Z,95588.94
2023-02-16T14:09:49.585Z,95597.31
2023-02-16T14:12:37.939Z,95585.56
2023-02-16T14:15:18.360Z,95574.78
2023-02-16T14:17:47.178Z,95580.00
2023-02-16T14:20:15.827Z,95576.13
2023-02-16T14:22:45.898Z,95574.91
2023-02-16T14:25:24.801Z,95568.44
2023-02-16T14:28:29.750Z,95576.94
2023-02-16T14:30:59.690Z,95583.00
2023-02-16T14:34:01.041Z,95580.56
2023-02-16T14:36:29.148Z,95580.69
2023-02-16T14:38:58.412Z,95579.88
2023-02-16T14:41:43.738Z,95576.59
2023-02-16T14:44:38.862Z,95576.63
2023-02-16T14:47:37.126Z,95568.84
2023-02-16T14:50:51.324Z,95577.97
2023-02-16T14:53:55.051Z,95571.84
2023-02-16T14:56:34.196Z,95571.38
2023-02-16T14:59:13.364Z,95578.50
2023-02-16T15:01:43.744Z,95585.59
2023-02-16T15:04:12.086Z,95581.88
2023-02-16T15:06:44.463Z,95578.78
2023-02-16T15:09:25.231Z,95580.72
2023-02-16T15:12:22.101Z,95577.97
2023-02-16T15:14:59.669Z,95580.91
2023-02-16T15:17:40.163Z,95576.28
2023-02-16T15:20:31.288Z,95584.03
2023-02-16T15:23:07.439Z,95574.03
2023-02-16T15:25:40.644Z,95585.97
2023-02-16T15:28:10.519Z,95589.50
2023-02-16T15:30:41.200Z,95590.75
2023-02-16T15:33:22.929Z,95586.31
2023-02-16T15:36:14.265Z,95586.88
2023-02-16T15:38:57.556Z,95594.16
2023-02-16T15:41:35.095Z,95595.13
2023-02-16T15:44:05.776Z,95603.16
2023-02-16T15:46:39.631Z,95592.50
2023-02-16T15:49:27.077Z,95596.69
2023-02-16T15:51:57.086Z,95590.91
2023-02-16T15:54:35.529Z,95605.03
2023-02-16T15:57:15.596Z,95602.25
2023-02-16T15:59:54.285Z,95601.53
2023-02-16T16:02:37.611Z,95612.97
2023-02-16T16:05:20.742Z,95609.38
2023-02-16T16:07:48.393Z,95622.00
2023-02-16T16:10:41.588Z,95616.16
2023-02-16T16:13:29.009Z,95611.50
2023-02-16T16:16:01.910Z,95610.56
2023-02-16T16:18:39.805Z,95624.72
2023-02-16T16:21:33.949Z,95625.88
2023-02-16T16:24:07.877Z,95623.00
2023-02-16T16:26:58.234Z,95619.88
2023-02-16T16:29:41.441Z,95632.00
2023-02-16T16:32:23.106Z,95620.84
2023-02-16T16:34:51.128Z,95621.00
2023-02-16T16:37:34.593Z,95625.84
2023-02-16T16:40:19.882Z,95637.75
2023-02-16T16:43:02.338Z,95637.31
2023-02-16T16:45:45.799Z,95636.09
2023-02-16T16:48:34.588Z,95636.66
2023-02-16T16:51:43.414Z,95643.06
2023-02-16T16:54:22.305Z,95652.50
2023-02-16T16:56:49.197Z,95639.41
2023-02-16T16:59:17.038Z,95646.31
2023-02-16T17:01:46.080Z,95646.81
2023-02-16T17:04:13.231Z,95657.84
2023-02-16T17:06:40.258Z,95647.06
2023-02-16T17:09:07.358Z,95649.53
2023-02-16T17:11:37.146Z,95658.41
2023-02-16T17:14:15.871Z,95658.59
2023-02-16T17:16:47.291Z,95669.75
2023-02-16T17:19:17.722Z,95664.69
2023-02-16T17:21:46.296Z,95662.22
2023-02-16T17:24:14.260Z,95673.00
2023-02-16T17:26:43.318Z,95681.03
2023-02-16T17:29:10.440Z,95678.38
2023-02-16T17:31:37.585Z,95676.94
2023-02-16T17:34:04.647Z,95673.16
2023-02-16T17:36:31.554Z,95679.19
2023-02-16T17:38:58.537Z,95681.97
2023-02-16T17:41:28.588Z,95682.91
2023-02-16T17:43:55.971Z,95683.00
2023-02-16T17:46:24.491Z,95684.63
2023-02-16T17:48:55.269Z,95680.00
2023-02-16T17:51:24.838Z,95689.09
2023-02-16T17:53:52.274Z,95681.66
2023-02-16T17:56:22.515Z,95695.84
2023-02-16T17:58:50.570Z,95702.13
2023-02-16T18:01:19.214Z,95700.44
2023-02-16T18:03:46.317Z,95704.47
2023-02-16T18:06:24.378Z,95706.38
2023-02-16T18:08:52.074Z,95703.53
2023-02-16T18:11:19.312Z,95701.91
2023-02-16T18:13:46.258Z,95700.13
2023-02-16T18:16:21.672Z,95708.31
2023-02-16T18:18:48.901Z,95705.09
2023-02-16T18:21:15.932Z,95703.31
2023-02-16T18:23:42.912Z,95707.41
2023-02-16T18:26:14.709Z,95702.34
2023-02-16T18:28:41.964Z,95707.41
2023-02-16T18:31:09.199Z,95704.78
2023-02-16T18:33:36.392Z,95715.38
2023-02-16T18:36:04.540Z,95701.00
2023-02-16T18:38:32.098Z,95708.81
2023-02-16T18:40:59.073Z,95715.16
2023-02-16T18:43:26.355Z,95714.34
2023-02-16T18:45:53.505Z,95711.38
2023-02-16T18:48:21.902Z,95712.34
2023-02-16T18:50:48.980Z,95713.94
2023-02-16T18:53:16.304Z,95716.16
2023-02-16T18:55:43.853Z,95714.97
2023-02-16T18:58:13.572Z,95717.88
2023-02-16T19:00:41.240Z,95719.31
2023-02-16T19:03:08.734Z,95725.78
2023-02-16T19:05:36.151Z,95716.47
2023-02-16T19:08:03.422Z,95718.88
2023-02-16T19:10:30.797Z,95713.13
2023-02-16T19:12:57.979Z,95716.19
2023-02-16T19:15:25.224Z,95719.91
2023-02-16T19:17:54.003Z,95716.41
2023-02-16T19:20:21.674Z,95729.44
2023-02-16T19:22:50.591Z,95723.84
2023-02-16T19:25:18.060Z,95726.06
2023-02-16T19:27:45.234Z,95726.38
2023-02-16T19:30:12.829Z,95723.09
2023-02-16T19:32:41.086Z,95730.91
2023-02-16T19:35:10.037Z,95734.63
2023-02-16T19:37:37.224Z,95729.56
2023-02-16T19:40:06.914Z,95729.84
2023-02-16T19:42:34.082Z,95729.69
2023-02-16T19:45:01.129Z,95730.53
2023-02-16T19:47:28.173Z,95732.56
2023-02-16T19:49:55.124Z,95731.44
2023-02-16T19:52:22.183Z,95740.59
2023-02-16T19:54:49.442Z,95745.16
2023-02-16T19:57:16.555Z,95738.94
2023-02-16T19:59:43.591Z,95748.28
2023-02-16T20:02:15.538Z,95743.19
2023-02-16T20:04:44.483Z,95744.16
2023-02-16T20:07:11.505Z,95739.94
2023-02-16T20:09:39.172Z,95738.28
2023-02-16T20:12:06.721Z,95746.22
2023-02-16T20:14:33.907Z,95748.19
2023-02-16T20:17:00.929Z,95737.50
2023-02-16T20:19:28.185Z,95746.97
2023-02-16T20:21:55.607Z,95746.16
2023-02-16T20:24:22.996Z,95752.03
2023-02-16T20:26:52.046Z,95741.06
2023-02-16T20:29:20.843Z,95740.28
2023-02-16T20:31:55.287Z,95751.66
2023-02-16T20:34:26.019Z,95739.47
2023-02-16T20:36:53.754Z,95736.72
2023-02-16T20:39:20.823Z,95734.63
2023-02-16T20:41:47.750Z,95730.91
2023-02-16T20:44:14.797Z,95735.16
2023-02-16T20:46:42.377Z,95727.03
2023-02-16T20:49:09.617Z,95737.97
2023-02-16T20:51:37.824Z,95738.50
2023-02-16T20:54:05.364Z,95740.84
2023-02-16T20:56:32.350Z,95734.78
2023-02-16T20:58:59.582Z,95734.34
2023-02-16T21:01:38.026Z,95732.56
2023-02-16T21:04:07.866Z,95727.72
2023-02-16T21:06:36.590Z,95727.06
2023-02-16T21:09:05.757Z,95720.72
2023-02-16T21:11:33.273Z,95725.50
2023-02-16T21:14:02.079Z,95718.63
2023-02-16T21:16:29.815Z,95711.19
2023-02-16T21:18:57.288Z,95710.72
2023-02-16T21:21:24.781Z,95716.63
2023-02-16T21:23:53.964Z,95712.09
2023-02-16T21:26:24.486Z,95713.72
2023-02-16T21:28:51.969Z,95717.00
2023-02-16T21:31:25.508Z,95713.06
2023-02-16T21:33:53.747Z,95711.25
2023-02-16T21:36:26.036Z,95702.91
2023-02-16T21:38:53.897Z,95700.00
2023-02-16T21:41:29.087Z,95705.22
2023-02-16T21:44:05.228Z,95699.19
2023-02-16T21:46:39.246Z,95693.84
2023-02-16T21:49:11.145Z,95683.41
2023-02-16T21:51:40.629Z,95679.66
2023-02-16T21:54:14.741Z,95676.75
2023-02-16T21:56:50.976Z,95674.97
2023-02-16T21:59:20.002Z,95670.72
2023-02-16T22:01:51.376Z,95670.56
2023-02-16T22:04:22.045Z,95670.13
2023-02-16T22:06:51.104Z,95665.56
2023-02-16T22:09:22.442Z,95677.63
2023-02-16T22:11:50.898Z,95676.97
2023-02-16T22:14:18.653Z,95674.66
2023-02-16T22:16:47.531Z,95677.59
2023-02-16T22:19:17.565Z,95671.16
2023-02-16T22:21:46.884Z,95668.56
2023-02-16T22:24:16.999Z,95672.75
2023-02-16T22:26:45.316Z,95668.94
2023-02-16T22:29:13.022Z,95667.53
2023-02-16T22:31:48.733Z,95675.56
2023-02-16T22:34:19.946Z,95674.69
2023-02-16T22:36:47.360Z,95677.56
2023-02-16T22:39:18.938Z,95685.16
2023-02-16T22:41:46.193Z,95683.16
2023-02-16T22:44:13.136Z,95681.66
2023-02-16T22:46:40.096Z,95689.59
2023-02-16T22:49:07.093Z,95689.59
2023-02-16T22:51:34.354Z,95679.88
2023-02-16T22:54:02.367Z,95686.28
2023-02-16T22:56:30.811Z,95679.13
2023-02-16T22:58:59.619Z,95666.56
2023-02-16T23:01:29.917Z,95669.53
2023-02-16T23:03:59.611Z,95664.69
2023-02-16T23:06:33.756Z,95665.91
2023-02-16T23:09:07.679Z,95675.72
2023-02-16T23:11:36.457Z,95676.09
2023-02-16T23:14:04.523Z,95668.03
2023-02-16T23:16:31.981Z,95667.44
2023-02-16T23:18:59.981Z,95661.50
2023-02-16T23:21:30.343Z,95650.66
2023-02-16T23:23:58.812Z,95654.97
2023-02-16T23:26:29.109Z,95655.03
2023-02-16T23:28:59.645Z,95652.94
2023-02-16T23:31:26.989Z,95643.03
2023-02-16T23:33:56.644Z,95643.38
2023-02-16T23:36:23.733Z,95643.72
2023-02-16T23:38:50.918Z,95648.34
2023-02-16T23:41:18.164Z,95644.28
2023-02-16T23:43:45.290Z,95640.38
2023-02-16T23:46:12.957Z,95644.31
2023-02-16T23:48:40.094Z,95635.38
2023-02-16T23:51:07.121Z,95635.72
2023-02-16T23:53:34.542Z,95636.56
2023-02-16T23:56:06.009Z,95636.56
2023-02-16T23:58:41.329Z,95633.50
